createdAt,value
2019-02-21T00:03:35.909Z,8.80
2019-02-21T00:07:40.661Z,8.80
2019-02-21T00:11:45.524Z,8.70
2019-02-21T00:15:50.269Z,8.70
2019-02-21T00:19:55.193Z,8.70
2019-02-21T00:24:00.008Z,8.50
2019-02-21T00:28:05.097Z,8.60
2019-02-21T00:32:09.960Z,8.50
2019-02-21T00:36:14.715Z,8.40
2019-02-21T00:40:19.649Z,8.30
2019-02-21T00:44:24.387Z,8.30
2019-02-21T00:48:29.212Z,8.40
2019-02-21T00:52:34.168Z,8.40
2019-02-21T00:56:38.993Z,8.30
2019-02-21T01:00:46.724Z,8.30
2019-02-21T01:04:50.412Z,8.20
2019-02-21T01:08:55.268Z,8.20
2019-02-21T01:13:00.359Z,8.20
2019-02-21T01:17:05.301Z,8.00
2019-02-21T01:21:11.197Z,7.80
2019-02-21T01:25:15.939Z,7.70
2019-02-21T01:29:20.756Z,7.70
2019-02-21T01:33:25.580Z,7.50
2019-02-21T01:37:30.310Z,7.70
2019-02-21T01:41:35.417Z,7.60
2019-02-21T01:45:40.310Z,7.50
2019-02-21T01:49:45.115Z,7.30
2019-02-21T01:53:49.859Z,7.60
2019-02-21T01:57:54.601Z,7.70
2019-02-21T02:01:59.581Z,7.70
2019-02-21T02:06:04.531Z,7.80
2019-02-21T02:10:10.042Z,7.50
2019-02-21T02:14:14.859Z,7.60
2019-02-21T02:18:19.781Z,7.60
2019-02-21T02:22:24.779Z,7.40
2019-02-21T02:26:29.702Z,7.40
2019-02-21T02:30:34.815Z,7.40
2019-02-21T02:34:39.626Z,7.20
2019-02-21T02:38:44.467Z,7.00
2019-02-21T02:42:49.440Z,7.10
2019-02-21T02:46:54.306Z,7.30
2019-02-21T02:50:59.216Z,7.10
2019-02-21T02:55:04.285Z,7.10
2019-02-21T02:59:09.182Z,7.10
2019-02-21T03:03:14.021Z,7.10
2019-02-21T03:07:18.839Z,7.10
2019-02-21T03:11:23.790Z,7.30
2019-02-21T03:15:28.609Z,7.50
2019-02-21T03:19:33.629Z,7.50
2019-02-21T03:23:38.492Z,7.60
2019-02-21T03:27:43.393Z,7.50
2019-02-21T03:31:54.170Z,7.60
2019-02-21T03:35:54.661Z,7.60
2019-02-21T03:40:00.683Z,7.50
2019-02-21T03:44:05.519Z,7.10
2019-02-21T03:48:10.384Z,6.90
2019-02-21T03:52:15.203Z,6.90
2019-02-21T03:56:20.085Z,7.00
2019-02-21T04:00:25.261Z,7.10
2019-02-21T04:04:30.152Z,7.00
2019-02-21T04:08:34.954Z,7.20
2019-02-21T04:12:40.013Z,7.30
2019-02-21T04:16:44.981Z,7.30
2019-02-21T04:20:50.015Z,7.20
2019-02-21T04:24:54.736Z,7.30
2019-02-21T04:28:59.484Z,7.20
2019-02-21T04:33:04.601Z,7.30
2019-02-21T04:37:09.412Z,7.20
2019-02-21T04:41:14.508Z,7.30
2019-02-21T04:45:19.248Z,7.30
2019-02-21T04:49:24.172Z,7.10
2019-02-21T04:53:28.919Z,7.20
2019-02-21T04:57:33.660Z,7.20
2019-02-21T05:01:40.351Z,7.30
2019-02-21T05:05:45.337Z,7.30
2019-02-21T05:09:57.928Z,7.10
2019-02-21T05:13:57.910Z,6.80
2019-02-21T05:18:02.759Z,6.80
2019-02-21T05:22:07.737Z,6.70
2019-02-21T05:26:15.491Z,6.70
2019-02-21T05:30:23.150Z,6.70
2019-02-21T05:34:41.509Z,6.50
2019-02-21T05:39:18.455Z,6.50
2019-02-21T05:43:40.966Z,6.40
2019-02-21T05:48:10.776Z,6.20
2019-02-21T05:52:23.145Z,6.20
2019-02-21T05:56:52.811Z,6.50
2019-02-21T06:01:03.633Z,6.70
2019-02-21T06:05:30.258Z,6.80
2019-02-21T06:10:01.141Z,6.80
2019-02-21T06:14:24.083Z,6.60
2019-02-21T06:18:47.017Z,6.60
2019-02-21T06:23:09.720Z,6.60
2019-02-21T06:27:45.506Z,6.80
2019-02-21T06:31:50.314Z,7.00
2019-02-21T06:35:55.288Z,7.00
2019-02-21T06:40:02.476Z,7.10
2019-02-21T06:44:07.338Z,7.20
2019-02-21T06:48:12.095Z,7.30
2019-02-21T06:52:16.948Z,7.30
2019-02-21T06:56:21.726Z,7.30
2019-02-21T07:00:26.608Z,7.30
2019-02-21T07:04:33.302Z,7.20
2019-02-21T07:08:40.041Z,7.10
2019-02-21T07:12:44.541Z,7.10
2019-02-21T07:16:49.269Z,7.30
2019-02-21T07:20:54.092Z,7.10
2019-02-21T07:25:04.157Z,7.00
2019-02-21T07:29:08.896Z,7.00
2019-02-21T07:33:14.004Z,6.90
2019-02-21T07:37:19.203Z,6.70
2019-02-21T07:41:24.448Z,6.90
2019-02-21T07:45:29.248Z,6.90
2019-02-21T07:49:34.116Z,6.90
2019-02-21T07:53:38.843Z,7.00
2019-02-21T07:57:43.580Z,7.20
2019-02-21T08:01:49.295Z,7.40
2019-02-21T08:05:54.090Z,7.30
2019-02-21T08:09:59.128Z,7.30
2019-02-21T08:14:04.350Z,7.80
2019-02-21T08:18:09.229Z,8.00
2019-02-21T08:22:13.982Z,8.10
2019-02-21T08:26:20.085Z,8.30
2019-02-21T08:30:28.997Z,8.30
2019-02-21T08:34:37.059Z,8.30
2019-02-21T08:38:41.788Z,8.50
2019-02-21T08:42:46.623Z,8.50
2019-02-21T08:46:53.392Z,8.40
2019-02-21T08:50:57.799Z,8.50
2019-02-21T08:55:02.534Z,8.60
2019-02-21T08:59:07.288Z,8.50
2019-02-21T09:03:12.480Z,8.80
2019-02-21T09:07:17.300Z,8.90
2019-02-21T09:11:22.369Z,9.00
2019-02-21T09:15:27.256Z,9.50
2019-02-21T09:19:32.169Z,9.40
2019-02-21T09:23:36.969Z,9.20
2019-02-21T09:27:41.791Z,9.50
2019-02-21T09:31:46.621Z,9.60
2019-02-21T09:35:51.417Z,9.90
2019-02-21T09:39:56.179Z,10.00
2019-02-21T09:44:00.917Z,10.00
2019-02-21T09:48:05.657Z,10.20
2019-02-21T09:52:10.392Z,10.30
2019-02-21T09:56:15.128Z,10.70
2019-02-21T10:00:20.390Z,10.70
2019-02-21T10:04:32.103Z,10.90
2019-02-21T10:08:31.645Z,11.10
2019-02-21T10:12:36.584Z,11.20
2019-02-21T10:16:41.338Z,11.00
2019-02-21T10:20:46.241Z,11.30
2019-02-21T10:24:51.360Z,11.50
2019-02-21T10:28:57.272Z,11.20
2019-02-21T10:33:02.104Z,11.30
2019-02-21T10:37:06.889Z,11.50
2019-02-21T10:41:11.668Z,11.50
2019-02-21T10:45:17.661Z,11.80
2019-02-21T10:49:22.578Z,11.60
2019-02-21T10:53:27.324Z,11.60
2019-02-21T10:57:32.168Z,11.60
2019-02-21T11:01:36.908Z,11.80
2019-02-21T11:05:41.727Z,12.30
2019-02-21T11:09:46.548Z,12.30
2019-02-21T11:13:51.386Z,11.80
2019-02-21T11:17:56.208Z,11.90
2019-02-21T11:22:01.047Z,12.10
2019-02-21T11:26:06.527Z,12.00
2019-02-21T11:30:14.039Z,12.50
2019-02-21T11:34:21.495Z,12.20
2019-02-21T11:38:26.309Z,12.20
2019-02-21T11:42:31.324Z,12.70
2019-02-21T11:46:36.065Z,12.60
2019-02-21T11:50:40.811Z,12.70
2019-02-21T11:54:45.552Z,12.80
2019-02-21T11:58:52.589Z,12.80
2019-02-21T12:02:57.507Z,13.00
2019-02-21T12:07:02.306Z,12.80
2019-02-21T12:11:07.140Z,12.90
2019-02-21T12:15:13.444Z,13.00
2019-02-21T12:19:18.189Z,13.30
2019-02-21T12:23:23.119Z,13.30
2019-02-21T12:27:27.849Z,13.40
2019-02-21T12:31:32.616Z,13.60
2019-02-21T12:35:37.506Z,13.50
2019-02-21T12:39:42.275Z,13.50
2019-02-21T12:43:47.014Z,13.00
2019-02-21T12:47:53.821Z,13.20
2019-02-21T12:51:58.178Z,13.70
2019-02-21T12:56:02.950Z,13.90
2019-02-21T13:00:11.595Z,13.70
2019-02-21T13:04:16.340Z,14.10
2019-02-21T13:08:21.205Z,14.20
2019-02-21T13:12:25.963Z,14.50
2019-02-21T13:16:31.081Z,14.00
2019-02-21T13:20:35.848Z,14.10
2019-02-21T13:24:40.673Z,14.20
2019-02-21T13:28:45.493Z,14.70
2019-02-21T13:32:50.221Z,15.00
2019-02-21T13:36:55.110Z,14.90
2019-02-21T13:40:59.879Z,14.80
2019-02-21T13:45:05.052Z,14.40
2019-02-21T13:49:09.868Z,14.30
2019-02-21T13:53:14.600Z,14.60
2019-02-21T13:57:19.351Z,15.00
2019-02-21T14:01:24.173Z,15.00
2019-02-21T14:05:28.908Z,15.00
2019-02-21T14:09:33.660Z,15.00
2019-02-21T14:13:38.389Z,15.00
2019-02-21T14:17:43.193Z,14.80
2019-02-21T14:21:47.953Z,14.50
2019-02-21T14:25:52.695Z,14.10
2019-02-21T14:29:57.497Z,14.20
2019-02-21T14:34:02.333Z,14.10
2019-02-21T14:38:07.188Z,14.00
2019-02-21T14:42:11.947Z,14.20
2019-02-21T14:46:16.703Z,13.90
2019-02-21T14:50:21.524Z,14.00
2019-02-21T14:54:26.373Z,14.00
2019-02-21T14:58:31.099Z,14.00
2019-02-21T15:02:35.867Z,14.00
2019-02-21T15:06:40.673Z,14.50
2019-02-21T15:10:45.453Z,14.60
2019-02-21T15:14:50.248Z,14.70
2019-02-21T15:18:55.413Z,15.30
2019-02-21T15:23:00.616Z,15.50
2019-02-21T15:27:08.555Z,15.10
2019-02-21T15:31:11.951Z,14.70
2019-02-21T15:35:19.273Z,14.60
2019-02-21T15:39:23.265Z,14.60
2019-02-21T15:43:28.191Z,14.30
2019-02-21T15:47:33.017Z,13.90
2019-02-21T15:51:37.789Z,14.10
2019-02-21T15:55:42.531Z,14.10
2019-02-21T15:59:47.339Z,14.00
2019-02-21T16:03:52.061Z,14.10
2019-02-21T16:07:57.040Z,14.00
2019-02-21T16:12:01.945Z,14.10
2019-02-21T16:16:07.008Z,14.10
2019-02-21T16:20:13.077Z,14.20
2019-02-21T16:24:19.009Z,14.00
2019-02-21T16:28:24.711Z,13.90
2019-02-21T16:32:29.541Z,13.80
2019-02-21T16:36:34.384Z,14.00
2019-02-21T16:40:39.231Z,13.60
2019-02-21T16:44:44.030Z,13.50
2019-02-21T16:48:48.768Z,13.50
2019-02-21T16:52:53.532Z,13.30
2019-02-21T16:56:58.348Z,13.40
2019-02-21T17:01:03.103Z,13.50
2019-02-21T17:05:08.456Z,13.70
2019-02-21T17:09:13.624Z,13.50
2019-02-21T17:13:18.471Z,13.40
2019-02-21T17:17:23.224Z,13.10
2019-02-21T17:21:28.349Z,13.40
2019-02-21T17:25:33.099Z,13.40
2019-02-21T17:29:37.822Z,13.50
2019-02-21T17:33:42.875Z,13.50
2019-02-21T17:37:47.696Z,13.60
2019-02-21T17:41:53.727Z,13.50
2019-02-21T17:45:58.456Z,13.40
2019-02-21T17:50:03.736Z,13.40
2019-02-21T17:54:09.770Z,13.40
2019-02-21T17:58:17.110Z,13.50
2019-02-21T18:02:21.356Z,13.70
2019-02-21T18:06:26.208Z,13.80
2019-02-21T18:10:31.002Z,13.80
2019-02-21T18:14:35.816Z,13.60
2019-02-21T18:18:40.640Z,13.70
2019-02-21T18:22:45.534Z,13.80
2019-02-21T18:26:50.298Z,13.80
2019-02-21T18:30:55.182Z,14.00
2019-02-21T18:35:00.310Z,14.10
2019-02-21T18:39:08.056Z,14.10
2019-02-21T18:43:13.375Z,14.20
2019-02-21T18:47:18.192Z,14.20
2019-02-21T18:51:23.194Z,14.20
2019-02-21T18:55:28.023Z,14.10
2019-02-21T18:59:32.835Z,13.90
2019-02-21T19:03:38.825Z,13.70
2019-02-21T19:07:43.792Z,13.70
2019-02-21T19:11:48.601Z,13.80
2019-02-21T19:15:55.055Z,13.90
2019-02-21T19:19:59.863Z,13.80
2019-02-21T19:24:04.757Z,13.60
2019-02-21T19:28:09.551Z,13.50
2019-02-21T19:32:16.668Z,13.40
2019-02-21T19:36:21.844Z,13.40
2019-02-21T19:40:28.324Z,13.30
2019-02-21T19:44:33.437Z,13.30
2019-02-21T19:48:38.573Z,13.30
2019-02-21T19:52:43.543Z,13.20
2019-02-21T19:56:48.681Z,13.10
2019-02-21T20:00:54.507Z,13.00
2019-02-21T20:04:59.707Z,13.00
2019-02-21T20:09:06.479Z,12.80
2019-02-21T20:13:15.161Z,12.40
2019-02-21T20:17:20.376Z,12.50
2019-02-21T20:21:25.316Z,12.50
2019-02-21T20:25:31.160Z,12.40
2019-02-21T20:29:36.634Z,12.30
2019-02-21T20:33:41.589Z,12.20
2019-02-21T20:37:46.496Z,12.30
2019-02-21T20:41:51.465Z,12.20
2019-02-21T20:45:56.361Z,11.90
2019-02-21T20:50:01.385Z,11.90
2019-02-21T20:54:06.236Z,11.80
2019-02-21T20:58:11.855Z,11.80
2019-02-21T21:02:17.020Z,11.80
2019-02-21T21:06:22.008Z,12.00
2019-02-21T21:10:27.108Z,12.10
2019-02-21T21:14:32.097Z,12.00
2019-02-21T21:18:37.147Z,11.80
2019-02-21T21:22:42.452Z,11.60
2019-02-21T21:26:47.231Z,11.20
2019-02-21T21:30:52.320Z,11.30
2019-02-21T21:34:57.068Z,11.40
2019-02-21T21:39:01.952Z,11.40
2019-02-21T21:43:08.508Z,11.20
2019-02-21T21:47:13.233Z,11.20
2019-02-21T21:51:18.223Z,11.10
2019-02-21T21:55:23.101Z,11.10
2019-02-21T21:59:27.915Z,11.00
2019-02-21T22:03:33.050Z,10.90
2019-02-21T22:07:37.893Z,11.20
2019-02-21T22:11:42.785Z,11.30
2019-02-21T22:15:47.663Z,11.50
2019-02-21T22:19:52.944Z,11.50
2019-02-21T22:23:57.757Z,11.40
2019-02-21T22:28:02.560Z,11.00
2019-02-21T22:32:07.653Z,10.80
2019-02-21T22:36:12.544Z,10.70
2019-02-21T22:40:17.674Z,10.60
2019-02-21T22:44:22.501Z,10.70
2019-02-21T22:48:27.316Z,10.50
2019-02-21T22:52:32.313Z,10.30
2019-02-21T22:56:37.363Z,10.20
2019-02-21T23:00:59.024Z,10.30
2019-02-21T23:05:45.328Z,10.20
2019-02-21T23:09:51.692Z,10.10
2019-02-21T23:13:56.896Z,10.10
2019-02-21T23:18:01.848Z,10.20
2019-02-21T23:22:06.804Z,10.20
2019-02-21T23:26:12.044Z,10.30
2019-02-21T23:30:17.105Z,10.00
2019-02-21T23:34:32.815Z,10.00
2019-02-21T23:38:37.547Z,10.10
2019-02-21T23:42:42.660Z,10.30
2019-02-21T23:46:48.339Z,10.30
2019-02-21T23:50:53.283Z,10.40
2019-02-21T23:54:58.185Z,10.40
2019-02-21T23:59:02.921Z,10.40
